sensor_id;sensor_type;location;lat;lon;timestamp;P1;durP1;ratioP1;P2;durP2;ratioP2
83801;SDS011;73818;51.646;15.140;2023-12-07T00:04:19;48;;;32;;
83801;SDS011;73818;51.646;15.140;2023-12-07T00:10:32;48;;;32;;
83801;SDS011;73818;51.646;15.140;2023-12-07T00:16:43;47;;;31;;
83801;SDS011;73818;51.646;15.140;2023-12-07T00:22:55;46;;;31;;
83801;SDS011;73818;51.646;15.140;2023-12-07T00:29:07;46;;;31;;
83801;SDS011;73818;51.646;15.140;2023-12-07T00:35:18;46;;;31;;
83801;SDS011;73818;51.646;15.140;2023-12-07T00:41:30;45;;;31;;
83801;SDS011;73818;51.646;15.140;2023-12-07T00:47:42;43;;;30;;
83801;SDS011;73818;51.646;15.140;2023-12-07T00:53:53;44;;;30;;
83801;SDS011;73818;51.646;15.140;2023-12-07T01:00:06;43;;;29;;
83801;SDS011;73818;51.646;15.140;2023-12-07T01:06:17;44;;;30;;
83801;SDS011;73818;51.646;15.140;2023-12-07T01:12:28;44;;;30;;
83801;SDS011;73818;51.646;15.140;2023-12-07T01:18:40;44;;;30;;
83801;SDS011;73818;51.646;15.140;2023-12-07T01:24:51;44;;;29;;
83801;SDS011;73818;51.646;15.140;2023-12-07T01:31:03;44;;;29;;
83801;SDS011;73818;51.646;15.140;2023-12-07T01:37:14;43;;;29;;
83801;SDS011;73818;51.646;15.140;2023-12-07T01:43:26;43;;;29;;
83801;SDS011;73818;51.646;15.140;2023-12-07T01:49:37;44;;;29;;
83801;SDS011;73818;51.646;15.140;2023-12-07T01:55:49;43;;;29;;
83801;SDS011;73818;51.646;15.140;2023-12-07T02:02:00;43;;;29;;
83801;SDS011;73818;51.646;15.140;2023-12-07T02:08:12;44;;;29;;
83801;SDS011;73818;51.646;15.140;2023-12-07T02:14:24;44;;;29;;
83801;SDS011;73818;51.646;15.140;2023-12-07T02:26:50;43;;;29;;
83801;SDS011;73818;51.646;15.140;2023-12-07T02:32:59;42;;;28;;
83801;SDS011;73818;51.646;15.140;2023-12-07T02:39:11;45;;;29;;
83801;SDS011;73818;51.646;15.140;2023-12-07T02:45:22;43;;;28;;
83801;SDS011;73818;51.646;15.140;2023-12-07T02:51:33;43;;;29;;
83801;SDS011;73818;51.646;15.140;2023-12-07T02:57:45;42;;;28;;
83801;SDS011;73818;51.646;15.140;2023-12-07T03:03:57;43;;;29;;
83801;SDS011;73818;51.646;15.140;2023-12-07T03:10:08;41;;;28;;
83801;SDS011;73818;51.646;15.140;2023-12-07T03:16:20;43;;;29;;
83801;SDS011;73818;51.646;15.140;2023-12-07T03:22:31;43;;;28;;
83801;SDS011;73818;51.646;15.140;2023-12-07T03:28:43;42;;;28;;
83801;SDS011;73818;51.646;15.140;2023-12-07T03:34:54;43;;;29;;
83801;SDS011;73818;51.646;15.140;2023-12-07T03:41:06;42;;;28;;
83801;SDS011;73818;51.646;15.140;2023-12-07T03:47:17;43;;;28;;
83801;SDS011;73818;51.646;15.140;2023-12-07T03:53:28;41;;;28;;
83801;SDS011;73818;51.646;15.140;2023-12-07T03:59:40;44;;;28;;
83801;SDS011;73818;51.646;15.140;2023-12-07T04:05:52;44;;;29;;
83801;SDS011;73818;51.646;15.140;2023-12-07T04:12:04;43;;;28;;
83801;SDS011;73818;51.646;15.140;2023-12-07T04:18:15;43;;;28;;
83801;SDS011;73818;51.646;15.140;2023-12-07T04:24:27;45;;;29;;
83801;SDS011;73818;51.646;15.140;2023-12-07T04:30:38;45;;;29;;
83801;SDS011;73818;51.646;15.140;2023-12-07T04:36:50;44;;;29;;
83801;SDS011;73818;51.646;15.140;2023-12-07T04:43:01;44;;;29;;
83801;SDS011;73818;51.646;15.140;2023-12-07T04:49:13;44;;;29;;
83801;SDS011;73818;51.646;15.140;2023-12-07T04:55:25;43;;;29;;
83801;SDS011;73818;51.646;15.140;2023-12-07T05:01:37;43;;;28;;
83801;SDS011;73818;51.646;15.140;2023-12-07T05:07:48;43;;;29;;
83801;SDS011;73818;51.646;15.140;2023-12-07T05:13:59;42;;;27;;
83801;SDS011;73818;51.646;15.140;2023-12-07T05:20:11;43;;;29;;
83801;SDS011;73818;51.646;15.140;2023-12-07T05:26:23;43;;;28;;
83801;SDS011;73818;51.646;15.140;2023-12-07T05:32:34;43;;;28;;
83801;SDS011;73818;51.646;15.140;2023-12-07T05:38:46;161;;;43;;
83801;SDS011;73818;51.646;15.140;2023-12-07T05:44:58;134;;;44;;
83801;SDS011;73818;51.646;15.140;2023-12-07T05:51:13;100;;;38;;
83801;SDS011;73818;51.646;15.140;2023-12-07T05:57:24;81;;;36;;
83801;SDS011;73818;51.646;15.140;2023-12-07T06:03:33;72;;;33;;
83801;SDS011;73818;51.646;15.140;2023-12-07T06:09:45;64;;;32;;
83801;SDS011;73818;51.646;15.140;2023-12-07T06:15:57;55;;;31;;
83801;SDS011;73818;51.646;15.140;2023-12-07T06:22:09;56;;;32;;
83801;SDS011;73818;51.646;15.140;2023-12-07T06:28:21;54;;;30;;
83801;SDS011;73818;51.646;15.140;2023-12-07T06:34:32;53;;;30;;
83801;SDS011;73818;51.646;15.140;2023-12-07T06:40:44;51;;;30;;
83801;SDS011;73818;51.646;15.140;2023-12-07T06:46:56;50;;;30;;
83801;SDS011;73818;51.646;15.140;2023-12-07T06:53:07;48;;;29;;
83801;SDS011;73818;51.646;15.140;2023-12-07T06:59:19;49;;;30;;
83801;SDS011;73818;51.646;15.140;2023-12-07T07:05:30;49;;;29;;
83801;SDS011;73818;51.646;15.140;2023-12-07T07:11:42;48;;;30;;
83801;SDS011;73818;51.646;15.140;2023-12-07T07:17:54;47;;;29;;
83801;SDS011;73818;51.646;15.140;2023-12-07T07:24:05;46;;;29;;
83801;SDS011;73818;51.646;15.140;2023-12-07T07:30:17;45;;;29;;
83801;SDS011;73818;51.646;15.140;2023-12-07T07:36:28;46;;;29;;
83801;SDS011;73818;51.646;15.140;2023-12-07T07:42:39;45;;;28;;
83801;SDS011;73818;51.646;15.140;2023-12-07T07:48:51;46;;;30;;
83801;SDS011;73818;51.646;15.140;2023-12-07T07:55:06;50;;;30;;
83801;SDS011;73818;51.646;15.140;2023-12-07T08:01:14;53;;;30;;
83801;SDS011;73818;51.646;15.140;2023-12-07T08:07:25;54;;;30;;
83801;SDS011;73818;51.646;15.140;2023-12-07T08:13:38;57;;;31;;
83801;SDS011;73818;51.646;15.140;2023-12-07T08:19:49;56;;;31;;
83801;SDS011;73818;51.646;15.140;2023-12-07T08:26:02;57;;;32;;
83801;SDS011;73818;51.646;15.140;2023-12-07T08:32:13;56;;;31;;
83801;SDS011;73818;51.646;15.140;2023-12-07T08:38:25;56;;;32;;
83801;SDS011;73818;51.646;15.140;2023-12-07T08:44:36;54;;;32;;
83801;SDS011;73818;51.646;15.140;2023-12-07T08:50:48;55;;;31;;
83801;SDS011;73818;51.646;15.140;2023-12-07T08:56:59;52;;;30;;
83801;SDS011;73818;51.646;15.140;2023-12-07T09:03:11;52;;;31;;
83801;SDS011;73818;51.646;15.140;2023-12-07T09:09:22;53;;;32;;
83801;SDS011;73818;51.646;15.140;2023-12-07T09:15:35;50;;;30;;
83801;SDS011;73818;51.646;15.140;2023-12-07T09:21:46;51;;;31;;
83801;SDS011;73818;51.646;15.140;2023-12-07T09:27:58;52;;;31;;
83801;SDS011;73818;51.646;15.140;2023-12-07T09:34:10;52;;;31;;
83801;SDS011;73818;51.646;15.140;2023-12-07T09:40:22;51;;;30;;
83801;SDS011;73818;51.646;15.140;2023-12-07T09:46:33;52;;;31;;
83801;SDS011;73818;51.646;15.140;2023-12-07T09:52:47;52;;;31;;
83801;SDS011;73818;51.646;15.140;2023-12-07T09:58:57;52;;;32;;
83801;SDS011;73818;51.646;15.140;2023-12-07T10:05:09;52;;;32;;
83801;SDS011;73818;51.646;15.140;2023-12-07T10:11:20;52;;;32;;
83801;SDS011;73818;51.646;15.140;2023-12-07T10:23:44;53;;;33;;
83801;SDS011;73818;51.646;15.140;2023-12-07T10:29:57;54;;;33;;
83801;SDS011;73818;51.646;15.140;2023-12-07T10:36:07;53;;;33;;
83801;SDS011;73818;51.646;15.140;2023-12-07T10:42:19;55;;;33;;
83801;SDS011;73818;51.646;15.140;2023-12-07T10:48:31;51;;;32;;
83801;SDS011;73818;51.646;15.140;2023-12-07T11:00:53;59;;;35;;
83801;SDS011;73818;51.646;15.140;2023-12-07T11:07:06;60;;;36;;
83801;SDS011;73818;51.646;15.140;2023-12-07T11:25:41;56;;;35;;
83801;SDS011;73818;51.646;15.140;2023-12-07T11:31:55;55;;;34;;
83801;SDS011;73818;51.646;15.140;2023-12-07T11:38:09;55;;;33;;
83801;SDS011;73818;51.646;15.140;2023-12-07T11:44:14;53;;;32;;
83801;SDS011;73818;51.646;15.140;2023-12-07T11:50:26;53;;;33;;
83801;SDS011;73818;51.646;15.140;2023-12-07T11:56:37;51;;;31;;
83801;SDS011;73818;51.646;15.140;2023-12-07T12:02:49;51;;;31;;
83801;SDS011;73818;51.646;15.140;2023-12-07T12:09:00;53;;;32;;
83801;SDS011;73818;51.646;15.140;2023-12-07T12:15:12;55;;;32;;
83801;SDS011;73818;51.646;15.140;2023-12-07T12:21:26;55;;;32;;
83801;SDS011;73818;51.646;15.140;2023-12-07T12:27:36;60;;;34;;
83801;SDS011;73818;51.646;15.140;2023-12-07T12:33:47;63;;;35;;
83801;SDS011;73818;51.646;15.140;2023-12-07T12:39:58;65;;;36;;
83801;SDS011;73818;51.646;15.140;2023-12-07T12:46:10;65;;;35;;
83801;SDS011;73818;51.646;15.140;2023-12-07T12:52:23;64;;;35;;
83801;SDS011;73818;51.646;15.140;2023-12-07T12:58:34;61;;;34;;
83801;SDS011;73818;51.646;15.140;2023-12-07T13:04:45;62;;;34;;
83801;SDS011;73818;51.646;15.140;2023-12-07T13:10:57;61;;;33;;
83801;SDS011;73818;51.646;15.140;2023-12-07T13:17:09;60;;;33;;
83801;SDS011;73818;51.646;15.140;2023-12-07T13:23:20;57;;;32;;
83801;SDS011;73818;51.646;15.140;2023-12-07T13:29:32;55;;;32;;
83801;SDS011;73818;51.646;15.140;2023-12-07T13:35:44;53;;;31;;
83801;SDS011;73818;51.646;15.140;2023-12-07T13:41:55;54;;;31;;
83801;SDS011;73818;51.646;15.140;2023-12-07T13:48:07;53;;;30;;
83801;SDS011;73818;51.646;15.140;2023-12-07T13:54:18;51;;;29;;
83801;SDS011;73818;51.646;15.140;2023-12-07T14:00:29;50;;;29;;
83801;SDS011;73818;51.646;15.140;2023-12-07T14:06:41;51;;;30;;
83801;SDS011;73818;51.646;15.140;2023-12-07T14:12:53;49;;;28;;
83801;SDS011;73818;51.646;15.140;2023-12-07T14:19:05;48;;;28;;
83801;SDS011;73818;51.646;15.140;2023-12-07T14:25:16;45;;;26;;
83801;SDS011;73818;51.646;15.140;2023-12-07T14:31:28;43;;;27;;
83801;SDS011;73818;51.646;15.140;2023-12-07T14:37:40;43;;;26;;
83801;SDS011;73818;51.646;15.140;2023-12-07T14:43:51;42;;;26;;
83801;SDS011;73818;51.646;15.140;2023-12-07T14:50:05;43;;;26;;
83801;SDS011;73818;51.646;15.140;2023-12-07T14:56:15;41;;;25;;
83801;SDS011;73818;51.646;15.140;2023-12-07T15:02:27;40;;;25;;
83801;SDS011;73818;51.646;15.140;2023-12-07T15:08:39;40;;;24;;
83801;SDS011;73818;51.646;15.140;2023-12-07T15:14:50;41;;;25;;
83801;SDS011;73818;51.646;15.140;2023-12-07T15:21:02;40;;;24;;
83801;SDS011;73818;51.646;15.140;2023-12-07T15:27:13;39;;;25;;
83801;SDS011;73818;51.646;15.140;2023-12-07T15:33:25;38;;;24;;
83801;SDS011;73818;51.646;15.140;2023-12-07T15:39:36;38;;;24;;
83801;SDS011;73818;51.646;15.140;2023-12-07T15:45:47;39;;;25;;
83801;SDS011;73818;51.646;15.140;2023-12-07T15:51:59;37;;;24;;
83801;SDS011;73818;51.646;15.140;2023-12-07T15:58:10;39;;;24;;
83801;SDS011;73818;51.646;15.140;2023-12-07T16:04:22;37;;;23;;
83801;SDS011;73818;51.646;15.140;2023-12-07T16:10:33;35;;;22;;
83801;SDS011;73818;51.646;15.140;2023-12-07T16:16:45;38;;;23;;
83801;SDS011;73818;51.646;15.140;2023-12-07T16:22:57;35;;;21;;
83801;SDS011;73818;51.646;15.140;2023-12-07T16:29:08;36;;;22;;
83801;SDS011;73818;51.646;15.140;2023-12-07T16:35:19;36;;;22;;
83801;SDS011;73818;51.646;15.140;2023-12-07T16:41:31;35;;;22;;
83801;SDS011;73818;51.646;15.140;2023-12-07T16:47:43;35;;;23;;
83801;SDS011;73818;51.646;15.140;2023-12-07T16:53:54;35;;;23;;
83801;SDS011;73818;51.646;15.140;2023-12-07T17:00:07;35;;;22;;
83801;SDS011;73818;51.646;15.140;2023-12-07T17:06:18;34;;;22;;
83801;SDS011;73818;51.646;15.140;2023-12-07T17:12:30;34;;;22;;
83801;SDS011;73818;51.646;15.140;2023-12-07T17:18:42;34;;;22;;
83801;SDS011;73818;51.646;15.140;2023-12-07T17:24:53;33;;;21;;
83801;SDS011;73818;51.646;15.140;2023-12-07T17:31:05;34;;;23;;
83801;SDS011;73818;51.646;15.140;2023-12-07T17:37:16;34;;;22;;
83801;SDS011;73818;51.646;15.140;2023-12-07T17:43:27;35;;;23;;
83801;SDS011;73818;51.646;15.140;2023-12-07T17:49:39;33;;;22;;
83801;SDS011;73818;51.646;15.140;2023-12-07T17:55:50;34;;;23;;
83801;SDS011;73818;51.646;15.140;2023-12-07T18:02:02;34;;;22;;
83801;SDS011;73818;51.646;15.140;2023-12-07T18:08:13;36;;;23;;
83801;SDS011;73818;51.646;15.140;2023-12-07T18:14:25;37;;;25;;
83801;SDS011;73818;51.646;15.140;2023-12-07T18:20:37;37;;;25;;
83801;SDS011;73818;51.646;15.140;2023-12-07T18:26:49;38;;;27;;
83801;SDS011;73818;51.646;15.140;2023-12-07T18:33:00;36;;;25;;
83801;SDS011;73818;51.646;15.140;2023-12-07T18:39:11;36;;;24;;
83801;SDS011;73818;51.646;15.140;2023-12-07T18:45:23;39;;;25;;
83801;SDS011;73818;51.646;15.140;2023-12-07T18:51:34;35;;;23;;
83801;SDS011;73818;51.646;15.140;2023-12-07T18:57:46;38;;;24;;
83801;SDS011;73818;51.646;15.140;2023-12-07T19:03:59;37;;;24;;
83801;SDS011;73818;51.646;15.140;2023-12-07T19:10:10;38;;;25;;
83801;SDS011;73818;51.646;15.140;2023-12-07T19:16:22;35;;;23;;
83801;SDS011;73818;51.646;15.140;2023-12-07T19:22:33;38;;;24;;
83801;SDS011;73818;51.646;15.140;2023-12-07T19:28:44;39;;;25;;
83801;SDS011;73818;51.646;15.140;2023-12-07T19:34:56;39;;;26;;
83801;SDS011;73818;51.646;15.140;2023-12-07T19:41:08;38;;;25;;
83801;SDS011;73818;51.646;15.140;2023-12-07T19:47:20;38;;;25;;
83801;SDS011;73818;51.646;15.140;2023-12-07T19:53:32;38;;;24;;
83801;SDS011;73818;51.646;15.140;2023-12-07T19:59:44;36;;;24;;
83801;SDS011;73818;51.646;15.140;2023-12-07T20:05:56;40;;;26;;
83801;SDS011;73818;51.646;15.140;2023-12-07T20:12:07;44;;;27;;
83801;SDS011;73818;51.646;15.140;2023-12-07T20:18:19;46;;;26;;
83801;SDS011;73818;51.646;15.140;2023-12-07T20:24:30;44;;;26;;
83801;SDS011;73818;51.646;15.140;2023-12-07T20:30:42;42;;;25;;
83801;SDS011;73818;51.646;15.140;2023-12-07T20:36:53;42;;;25;;
83801;SDS011;73818;51.646;15.140;2023-12-07T20:43:05;39;;;24;;
83801;SDS011;73818;51.646;15.140;2023-12-07T20:49:16;41;;;24;;
83801;SDS011;73818;51.646;15.140;2023-12-07T20:55:28;40;;;24;;
83801;SDS011;73818;51.646;15.140;2023-12-07T21:01:41;37;;;23;;
83801;SDS011;73818;51.646;15.140;2023-12-07T21:07:52;36;;;23;;
83801;SDS011;73818;51.646;15.140;2023-12-07T21:14:04;37;;;23;;
83801;SDS011;73818;51.646;15.140;2023-12-07T21:20:16;37;;;22;;
83801;SDS011;73818;51.646;15.140;2023-12-07T21:26:28;35;;;21;;
83801;SDS011;73818;51.646;15.140;2023-12-07T21:32:40;34;;;22;;
83801;SDS011;73818;51.646;15.140;2023-12-07T21:41:57;34;;;21;;
83801;SDS011;73818;51.646;15.140;2023-12-07T21:48:08;37;;;21;;
83801;SDS011;73818;51.646;15.140;2023-12-07T21:54:19;34;;;21;;
83801;SDS011;73818;51.646;15.140;2023-12-07T22:00:31;32;;;20;;
83801;SDS011;73818;51.646;15.140;2023-12-07T22:06:42;32;;;20;;
83801;SDS011;73818;51.646;15.140;2023-12-07T22:12:55;32;;;19;;
83801;SDS011;73818;51.646;15.140;2023-12-07T22:19:06;30;;;19;;
83801;SDS011;73818;51.646;15.140;2023-12-07T22:25:17;30;;;19;;
83801;SDS011;73818;51.646;15.140;2023-12-07T22:31:28;30;;;19;;
83801;SDS011;73818;51.646;15.140;2023-12-07T22:37:40;28;;;18;;
83801;SDS011;73818;51.646;15.140;2023-12-07T22:43:51;29;;;18;;
83801;SDS011;73818;51.646;15.140;2023-12-07T22:50:04;29;;;18;;
83801;SDS011;73818;51.646;15.140;2023-12-07T22:56:15;28;;;17;;
83801;SDS011;73818;51.646;15.140;2023-12-07T23:02:26;27;;;17;;
83801;SDS011;73818;51.646;15.140;2023-12-07T23:08:37;26;;;16;;
83801;SDS011;73818;51.646;15.140;2023-12-07T23:14:49;26;;;16;;
83801;SDS011;73818;51.646;15.140;2023-12-07T23:21:01;25;;;16;;
83801;SDS011;73818;51.646;15.140;2023-12-07T23:27:13;24;;;16;;
83801;SDS011;73818;51.646;15.140;2023-12-07T23:33:24;23;;;15;;
83801;SDS011;73818;51.646;15.140;2023-12-07T23:39:36;23;;;15;;
83801;SDS011;73818;51.646;15.140;2023-12-07T23:45:47;23;;;15;;
83801;SDS011;73818;51.646;15.140;2023-12-07T23:51:59;22;;;14;;
83801;SDS011;73818;51.646;15.140;2023-12-07T23:58:11;22;;;14;;
